Time;durP1;ratioP1;P1;durP2;ratioP2;P2;SDS_P1;SDS_P2;PMS_P1;PMS_P2;Temp;Humidity;BMP_temperature;BMP_pressure;BME280_temperature;BME280_humidity;BME280_pressure;Samples;Min_cycle;Max_cycle;Signal;HPM_P1;HPM_P2
2022/07/18 00:00:58;;;;;;;1.57;1.40;;;;;;;;;;5049548;28;20198;-62
2022/07/18 00:03:28;;;;;;;3.83;1.43;;;;;;;;;;5048558;28;20190;-62
2022/07/18 00:05:59;;;;;;;1.63;1.47;;;;;;;;;;5025679;28;20297;-63
2022/07/18 00:08:31;;;;;;;3.03;1.40;;;;;;;;;;5042220;28;20618;-63
2022/07/18 00:11:00;;;;;;;1.70;1.40;;;;;;;;;;5068588;28;20521;-62
2022/07/18 00:13:31;;;;;;;2.70;1.40;;;;;;;;;;5037378;28;20769;-62
2022/07/18 00:16:00;;;;;;;2.67;1.40;;;;;;;;;;5045133;28;20223;-63
2022/07/18 00:18:31;;;;;;;1.90;1.40;;;;;;;;;;5049046;28;20211;-63
2022/07/18 00:21:01;;;;;;;1.63;1.20;;;;;;;;;;5045657;28;20186;-63
2022/07/18 00:23:31;;;;;;;2.97;1.30;;;;;;;;;;5048599;28;20628;-62
2022/07/18 00:26:03;;;;;;;1.83;1.33;;;;;;;;;;5018948;28;20190;-62
2022/07/18 00:28:37;;;;;;;2.17;1.43;;;;;;;;;;5045126;28;20214;-62
2022/07/18 00:31:09;;;;;;;1.97;1.40;;;;;;;;;;5049922;28;20260;-63
2022/07/18 00:33:36;;;;;;;1.53;1.20;;;;;;;;;;5047630;28;20195;-62
2022/07/18 00:36:08;;;;;;;1.90;1.30;;;;;;;;;;5049259;28;20222;-62
2022/07/18 00:38:37;;;;;;;1.90;1.50;;;;;;;;;;5055133;28;20229;-62
2022/07/18 00:41:07;;;;;;;1.90;1.50;;;;;;;;;;5042828;28;20205;-62
2022/07/18 00:43:37;;;;;;;1.27;1.17;;;;;;;;;;5061520;28;20566;-62
2022/07/18 00:46:07;;;;;;;1.60;1.10;;;;;;;;;;5047982;28;20221;-62
2022/07/18 00:48:38;;;;;;;2.63;1.47;;;;;;;;;;5048032;28;20201;-62
2022/07/18 00:51:07;;;;;;;1.93;1.30;;;;;;;;;;5016309;28;20227;-63
2022/07/18 00:53:36;;;;;;;2.93;1.40;;;;;;;;;;5021919;28;20207;-62
2022/07/18 00:56:09;;;;;;;2.17;1.30;;;;;;;;;;5019473;28;20195;-62
2022/07/18 00:58:39;;;;;;;1.40;1.30;;;;;;;;;;5027521;28;20218;-63
2022/07/18 01:04:04;;;;;;;1.67;1.53;;;;;;;;;;5007054;28;20207;-62
2022/07/18 01:06:35;;;;;;;3.37;1.33;;;;;;;;;;5007546;28;20243;-62
2022/07/18 01:09:19;;;;;;;2.13;1.30;;;;;;;;;;5021661;28;20575;-62
2022/07/18 01:11:51;;;;;;;1.93;1.50;;;;;;;;;;5025719;28;20550;-63
2022/07/18 01:14:23;;;;;;;1.50;1.40;;;;;;;;;;5028015;28;20647;-63
2022/07/18 01:16:54;;;;;;;2.60;1.30;;;;;;;;;;5033484;28;20218;-62
2022/07/18 01:19:26;;;;;;;2.57;1.43;;;;;;;;;;5028768;28;20225;-63
2022/07/18 01:21:57;;;;;;;1.90;1.40;;;;;;;;;;5013702;28;20591;-63
2022/07/18 01:24:25;;;;;;;2.23;1.50;;;;;;;;;;5031075;28;20640;-62
2022/07/18 01:27:01;;;;;;;2.63;1.27;;;;;;;;;;5040366;28;20571;-62
2022/07/18 01:29:30;;;;;;;2.00;1.47;;;;;;;;;;5007018;28;20199;-63
2022/07/18 01:32:10;;;;;;;1.60;1.43;;;;;;;;;;5038119;28;20198;-63
2022/07/18 01:34:43;;;;;;;1.63;1.53;;;;;;;;;;5033917;28;20195;-62
2022/07/18 01:37:15;;;;;;;1.60;1.47;;;;;;;;;;4994803;28;20250;-62
2022/07/18 01:39:43;;;;;;;2.47;1.50;;;;;;;;;;5021218;28;20314;-63
2022/07/18 01:42:18;;;;;;;2.30;1.40;;;;;;;;;;5010873;28;20214;-62
2022/07/18 01:44:50;;;;;;;1.30;1.10;;;;;;;;;;5014862;28;20190;-63
2022/07/18 01:47:25;;;;;;;1.47;1.33;;;;;;;;;;5030042;28;20187;-63
2022/07/18 01:49:58;;;;;;;1.57;1.47;;;;;;;;;;5006500;28;20234;-62
2022/07/18 01:52:31;;;;;;;1.60;1.40;;;;;;;;;;5024010;28;20302;-62
2022/07/18 01:55:01;;;;;;;3.00;1.57;;;;;;;;;;5027622;28;20187;-63
2022/07/18 01:57:31;;;;;;;2.13;1.50;;;;;;;;;;5026503;28;20197;-63
2022/07/18 02:00:03;;;;;;;1.60;1.40;;;;;;;;;;5026858;28;20214;-62
2022/07/18 02:02:36;;;;;;;2.07;1.40;;;;;;;;;;5033405;28;20192;-63
2022/07/18 02:05:12;;;;;;;1.63;1.40;;;;;;;;;;5023250;28;20203;-62
2022/07/18 02:07:44;;;;;;;1.53;1.33;;;;;;;;;;5009218;28;20187;-62
2022/07/18 02:10:21;;;;;;;4.17;1.40;;;;;;;;;;5037373;28;20229;-63
2022/07/18 02:12:52;;;;;;;1.57;1.40;;;;;;;;;;5036750;28;20191;-62
2022/07/18 02:15:21;;;;;;;1.90;1.23;;;;;;;;;;5013657;28;20194;-62
2022/07/18 02:17:51;;;;;;;1.80;1.33;;;;;;;;;;5006849;28;20203;-62
2022/07/18 02:20:21;;;;;;;2.10;1.50;;;;;;;;;;5030639;28;20733;-62
2022/07/18 02:22:52;;;;;;;2.47;1.60;;;;;;;;;;5029408;28;20191;-63
2022/07/18 02:25:23;;;;;;;1.50;1.30;;;;;;;;;;5031000;28;20516;-62
2022/07/18 02:27:53;;;;;;;1.73;1.40;;;;;;;;;;5023981;28;20211;-62
2022/07/18 02:30:26;;;;;;;2.20;1.63;;;;;;;;;;5027560;28;20521;-62
2022/07/18 02:32:56;;;;;;;2.80;1.50;;;;;;;;;;5022143;28;20199;-63
2022/07/18 02:35:27;;;;;;;1.70;1.40;;;;;;;;;;5031069;28;20186;-62
2022/07/18 02:38:02;;;;;;;3.13;1.40;;;;;;;;;;5027560;28;20210;-62
2022/07/18 02:40:32;;;;;;;2.20;1.33;;;;;;;;;;5026523;28;20242;-63
2022/07/18 02:43:01;;;;;;;2.70;1.80;;;;;;;;;;5031333;28;20199;-63
2022/07/18 02:45:33;;;;;;;2.27;1.70;;;;;;;;;;5032059;28;20203;-62
2022/07/18 02:48:11;;;;;;;2.33;1.60;;;;;;;;;;5045187;28;20201;-62
2022/07/18 02:50:43;;;;;;;1.60;1.50;;;;;;;;;;5048834;28;20259;-63
2022/07/18 02:53:12;;;;;;;2.47;1.47;;;;;;;;;;5066465;28;20209;-63
2022/07/18 02:55:50;;;;;;;2.50;1.50;;;;;;;;;;5048078;28;20190;-63
2022/07/18 02:58:35;;;;;;;2.20;1.60;;;;;;;;;;5034982;28;20218;-63
2022/07/18 03:01:06;;;;;;;1.77;1.50;;;;;;;;;;5050462;28;20248;-62
2022/07/18 03:03:37;;;;;;;2.60;1.33;;;;;;;;;;5044115;28;20246;-62
2022/07/18 03:06:09;;;;;;;1.47;1.37;;;;;;;;;;5057175;28;20204;-62
2022/07/18 03:08:41;;;;;;;2.03;1.50;;;;;;;;;;5050194;28;20197;-61
2022/07/18 03:11:25;;;;;;;1.50;1.37;;;;;;;;;;5050949;28;20229;-61
2022/07/18 03:13:56;;;;;;;3.00;1.40;;;;;;;;;;5047956;28;20213;-61
2022/07/18 03:16:27;;;;;;;1.50;1.40;;;;;;;;;;5012869;28;20579;-61
2022/07/18 03:19:00;;;;;;;1.80;1.70;;;;;;;;;;5050997;28;20226;-61
2022/07/18 03:21:31;;;;;;;2.00;1.77;;;;;;;;;;5040963;28;20281;-61
2022/07/18 03:23:59;;;;;;;1.67;1.40;;;;;;;;;;5035729;28;20198;-61
2022/07/18 03:26:30;;;;;;;3.87;1.57;;;;;;;;;;5032448;28;20202;-61
2022/07/18 03:29:01;;;;;;;1.87;1.67;;;;;;;;;;5047993;28;20651;-61
2022/07/18 03:31:35;;;;;;;2.30;1.60;;;;;;;;;;5048163;28;20273;-61
2022/07/18 03:34:05;;;;;;;1.83;1.60;;;;;;;;;;5048356;28;20202;-61
2022/07/18 03:36:42;;;;;;;4.30;1.70;;;;;;;;;;5052002;28;20216;-61
2022/07/18 03:39:14;;;;;;;2.50;1.67;;;;;;;;;;5053165;28;20213;-61
2022/07/18 03:41:46;;;;;;;1.67;1.50;;;;;;;;;;5053454;28;20199;-61
2022/07/18 03:44:17;;;;;;;2.83;1.50;;;;;;;;;;5054928;28;20196;-61
2022/07/18 03:46:51;;;;;;;2.80;1.50;;;;;;;;;;5027692;28;20870;-61
2022/07/18 03:49:19;;;;;;;3.40;1.50;;;;;;;;;;5043359;28;20283;-61
2022/07/18 03:51:50;;;;;;;2.37;1.83;;;;;;;;;;5025837;28;20202;-61
2022/07/18 03:54:33;;;;;;;1.90;1.63;;;;;;;;;;5049877;28;20707;-61
2022/07/18 03:57:05;;;;;;;1.93;1.73;;;;;;;;;;5049371;28;20271;-63
2022/07/18 03:59:35;;;;;;;1.87;1.67;;;;;;;;;;5046828;28;20218;-62
2022/07/18 04:02:07;;;;;;;2.13;1.80;;;;;;;;;;5033501;28;20703;-61
2022/07/18 04:04:36;;;;;;;2.03;1.83;;;;;;;;;;5039891;28;20260;-61
2022/07/18 04:07:08;;;;;;;1.60;1.50;;;;;;;;;;5033399;28;20194;-61
2022/07/18 04:09:36;;;;;;;4.13;1.67;;;;;;;;;;5030274;28;20202;-61
2022/07/18 04:12:20;;;;;;;2.20;1.50;;;;;;;;;;5052003;28;20287;-61
2022/07/18 04:14:52;;;;;;;3.50;1.83;;;;;;;;;;5047857;28;20198;-61
2022/07/18 04:17:25;;;;;;;2.20;1.77;;;;;;;;;;5044908;28;20221;-61
2022/07/18 04:20:00;;;;;;;2.23;1.50;;;;;;;;;;5056419;28;20405;-60
2022/07/18 04:22:31;;;;;;;5.10;1.57;;;;;;;;;;5039697;28;20548;-61
2022/07/18 04:25:11;;;;;;;1.50;1.40;;;;;;;;;;5060972;28;20204;-61
2022/07/18 04:27:50;;;;;;;3.53;1.50;;;;;;;;;;5053797;28;20284;-62
2022/07/18 04:30:22;;;;;;;1.70;1.60;;;;;;;;;;5051829;28;20210;-61
2022/07/18 04:32:53;;;;;;;3.57;1.60;;;;;;;;;;5036889;28;20194;-61
2022/07/18 04:35:35;;;;;;;2.33;1.53;;;;;;;;;;5035517;28;20204;-61
2022/07/18 04:38:09;;;;;;;1.83;1.57;;;;;;;;;;5058512;28;20198;-61
2022/07/18 04:40:40;;;;;;;2.27;1.57;;;;;;;;;;5062009;28;20230;-62
2022/07/18 04:43:11;;;;;;;1.30;1.20;;;;;;;;;;5051092;28;20207;-62
2022/07/18 04:45:42;;;;;;;2.27;1.63;;;;;;;;;;5012513;28;20240;-63
2022/07/18 04:48:12;;;;;;;1.63;1.40;;;;;;;;;;5048779;28;20194;-62
2022/07/18 04:50:41;;;;;;;2.10;1.73;;;;;;;;;;5030855;28;20226;-62
2022/07/18 04:53:12;;;;;;;1.87;1.60;;;;;;;;;;5046391;28;20551;-62
2022/07/18 04:55:40;;;;;;;2.37;1.70;;;;;;;;;;5047880;28;20197;-62
2022/07/18 04:58:13;;;;;;;2.40;1.77;;;;;;;;;;5047711;28;20182;-62
2022/07/18 05:00:43;;;;;;;2.93;1.60;;;;;;;;;;5048355;28;20229;-62
2022/07/18 05:03:14;;;;;;;2.60;1.60;;;;;;;;;;5049657;28;20209;-62
2022/07/18 05:05:44;;;;;;;2.33;1.57;;;;;;;;;;5026001;28;20315;-62
2022/07/18 05:08:18;;;;;;;3.03;1.73;;;;;;;;;;5031533;28;20693;-61
2022/07/18 05:10:49;;;;;;;3.17;1.60;;;;;;;;;;5035770;28;20191;-61
2022/07/18 05:13:21;;;;;;;2.40;1.70;;;;;;;;;;5051248;28;20228;-61
2022/07/18 05:15:57;;;;;;;1.77;1.57;;;;;;;;;;5023602;28;20218;-63
2022/07/18 05:18:29;;;;;;;2.90;1.50;;;;;;;;;;5054083;28;20214;-62
2022/07/18 05:20:59;;;;;;;3.57;1.70;;;;;;;;;;5055077;28;20224;-63
2022/07/18 05:23:28;;;;;;;3.57;1.80;;;;;;;;;;5047872;28;20190;-63
2022/07/18 05:25:58;;;;;;;4.17;1.90;;;;;;;;;;5045178;28;20518;-63
2022/07/18 05:28:29;;;;;;;3.33;1.80;;;;;;;;;;5046448;28;20879;-63
2022/07/18 05:31:04;;;;;;;4.23;1.70;;;;;;;;;;5049673;28;20277;-62
2022/07/18 05:33:33;;;;;;;3.30;1.73;;;;;;;;;;5050141;28;20202;-62
2022/07/18 05:36:06;;;;;;;2.47;1.60;;;;;;;;;;5026978;28;20560;-61
2022/07/18 05:38:36;;;;;;;2.27;1.70;;;;;;;;;;5048470;28;20227;-62
2022/07/18 05:41:06;;;;;;;2.10;1.73;;;;;;;;;;5044046;28;20572;-61
2022/07/18 05:43:36;;;;;;;2.73;1.70;;;;;;;;;;5046974;28;20763;-61
2022/07/18 05:46:05;;;;;;;2.60;1.57;;;;;;;;;;5047381;28;20606;-63
2022/07/18 05:48:44;;;;;;;3.50;2.03;;;;;;;;;;5049439;28;20194;-63
2022/07/18 05:51:15;;;;;;;1.90;1.60;;;;;;;;;;5046525;28;20238;-62
2022/07/18 05:53:46;;;;;;;3.80;2.13;;;;;;;;;;5040630;28;20214;-62
2022/07/18 05:56:19;;;;;;;2.47;1.73;;;;;;;;;;5048084;28;20191;-62
2022/07/18 05:58:57;;;;;;;4.37;2.20;;;;;;;;;;5045808;28;20183;-62
2022/07/18 06:01:30;;;;;;;3.63;2.00;;;;;;;;;;5047152;28;20210;-61
2022/07/18 06:04:05;;;;;;;5.20;1.73;;;;;;;;;;5025914;28;20331;-62
2022/07/18 06:06:35;;;;;;;2.47;2.27;;;;;;;;;;5051429;28;20196;-63
2022/07/18 06:09:10;;;;;;;2.57;1.97;;;;;;;;;;5049959;28;20256;-63
2022/07/18 06:11:39;;;;;;;2.80;1.90;;;;;;;;;;5044090;28;20195;-62
2022/07/18 06:14:10;;;;;;;4.30;1.97;;;;;;;;;;5048049;28;20182;-62
2022/07/18 06:16:54;;;;;;;4.63;1.80;;;;;;;;;;5045696;28;20267;-63
2022/07/18 06:19:25;;;;;;;3.00;1.93;;;;;;;;;;5053522;28;20208;-64
2022/07/18 06:21:54;;;;;;;3.47;1.77;;;;;;;;;;5048030;28;20190;-61
2022/07/18 06:24:27;;;;;;;4.27;2.07;;;;;;;;;;5045651;28;20184;-61
2022/07/18 06:26:58;;;;;;;2.67;1.77;;;;;;;;;;5030955;28;20198;-61
2022/07/18 06:29:29;;;;;;;2.97;2.30;;;;;;;;;;5056910;28;20206;-61
2022/07/18 06:32:01;;;;;;;4.10;1.90;;;;;;;;;;5047321;28;20268;-63
2022/07/18 06:34:31;;;;;;;3.03;1.70;;;;;;;;;;5044676;28;20202;-64
2022/07/18 06:37:00;;;;;;;2.70;1.70;;;;;;;;;;5049404;28;20635;-63
2022/07/18 06:39:30;;;;;;;4.37;2.00;;;;;;;;;;5050983;28;20533;-63
2022/07/18 06:42:00;;;;;;;2.17;1.73;;;;;;;;;;5049530;28;20284;-61
2022/07/18 06:44:34;;;;;;;2.83;2.03;;;;;;;;;;5032381;28;20225;-61
2022/07/18 06:47:06;;;;;;;2.73;2.17;;;;;;;;;;5050439;28;20260;-61
2022/07/18 06:49:37;;;;;;;2.67;1.67;;;;;;;;;;5059110;28;20190;-61
2022/07/18 06:52:11;;;;;;;3.33;2.00;;;;;;;;;;5027253;28;20199;-61
2022/07/18 06:54:41;;;;;;;3.10;1.93;;;;;;;;;;5044359;28;20202;-60
2022/07/18 06:57:11;;;;;;;3.03;2.27;;;;;;;;;;5029959;28;20225;-62
2022/07/18 06:59:54;;;;;;;4.30;2.00;;;;;;;;;;5047707;28;20233;-62
2022/07/18 07:02:26;;;;;;;3.87;2.10;;;;;;;;;;5041079;28;20651;-61
2022/07/18 07:05:02;;;;;;;5.57;2.07;;;;;;;;;;5034714;28;20662;-60
2022/07/18 07:07:30;;;;;;;2.10;1.80;;;;;;;;;;5050483;28;20194;-60
2022/07/18 07:10:02;;;;;;;3.13;2.03;;;;;;;;;;5049915;28;20202;-60
2022/07/18 07:12:30;;;;;;;4.67;2.00;;;;;;;;;;5004051;28;20225;-62
2022/07/18 07:15:01;;;;;;;2.67;1.80;;;;;;;;;;5057384;28;20210;-62
2022/07/18 07:17:31;;;;;;;4.57;2.10;;;;;;;;;;5046392;28;20303;-62
2022/07/18 07:20:02;;;;;;;2.20;1.90;;;;;;;;;;5048224;28;20989;-62
2022/07/18 07:22:41;;;;;;;2.77;1.90;;;;;;;;;;5053126;28;20280;-61
2022/07/18 07:25:14;;;;;;;2.87;1.83;;;;;;;;;;5055289;28;20296;-61
2022/07/18 07:27:47;;;;;;;2.80;1.70;;;;;;;;;;5031361;28;20206;-63
2022/07/18 07:30:17;;;;;;;2.57;1.90;;;;;;;;;;5065211;28;20201;-62
2022/07/18 07:32:48;;;;;;;3.30;1.80;;;;;;;;;;5021310;28;20190;-62
2022/07/18 07:35:20;;;;;;;3.00;1.87;;;;;;;;;;5051362;28;20232;-62
2022/07/18 07:37:50;;;;;;;3.00;1.80;;;;;;;;;;5047223;28;20781;-62
2022/07/18 07:40:20;;;;;;;4.03;2.10;;;;;;;;;;5046428;28;20611;-62
2022/07/18 07:42:51;;;;;;;2.53;1.70;;;;;;;;;;5040416;28;20190;-62
2022/07/18 07:45:28;;;;;;;2.37;2.00;;;;;;;;;;5035297;28;20202;-62
2022/07/18 07:48:04;;;;;;;3.33;1.90;;;;;;;;;;5046901;28;20194;-62
2022/07/18 07:50:36;;;;;;;2.93;1.83;;;;;;;;;;5048594;28;20237;-62
2022/07/18 07:53:07;;;;;;;1.90;1.70;;;;;;;;;;5044870;28;20210;-62
2022/07/18 07:55:37;;;;;;;2.80;1.80;;;;;;;;;;5050243;28;20654;-62
2022/07/18 07:58:12;;;;;;;2.23;1.70;;;;;;;;;;5030484;28;20234;-62
2022/07/18 08:00:46;;;;;;;2.23;1.70;;;;;;;;;;5046677;28;20316;-63
2022/07/18 08:03:16;;;;;;;2.50;1.70;;;;;;;;;;5048902;28;20183;-63
2022/07/18 08:05:49;;;;;;;2.47;1.73;;;;;;;;;;5049592;28;20203;-62
2022/07/18 08:08:18;;;;;;;2.23;1.80;;;;;;;;;;5019517;28;20298;-62
2022/07/18 08:10:48;;;;;;;3.27;2.20;;;;;;;;;;5043684;28;20205;-60
2022/07/18 08:13:21;;;;;;;1.93;1.57;;;;;;;;;;5064652;28;20198;-60
2022/07/18 08:15:50;;;;;;;2.33;1.70;;;;;;;;;;5042269;28;20194;-63
2022/07/18 08:18:23;;;;;;;2.20;1.67;;;;;;;;;;5037526;28;20277;-62
2022/07/18 08:20:55;;;;;;;4.30;1.90;;;;;;;;;;5032430;28;20888;-62
2022/07/18 08:23:26;;;;;;;2.73;2.10;;;;;;;;;;5062788;28;20629;-62
2022/07/18 08:25:58;;;;;;;2.10;1.70;;;;;;;;;;4999413;28;20504;-64
2022/07/18 08:28:29;;;;;;;3.83;1.70;;;;;;;;;;5038870;28;20211;-63
2022/07/18 08:31:04;;;;;;;2.63;1.90;;;;;;;;;;5051173;28;20549;-64
2022/07/18 08:33:37;;;;;;;2.33;1.70;;;;;;;;;;5049304;28;20202;-62
2022/07/18 08:36:10;;;;;;;3.13;1.77;;;;;;;;;;5048043;28;20217;-63
2022/07/18 08:38:43;;;;;;;2.13;1.77;;;;;;;;;;5054869;28;20189;-65
2022/07/18 08:41:18;;;;;;;1.77;1.60;;;;;;;;;;5026835;28;20233;-65
2022/07/18 08:43:51;;;;;;;2.10;1.70;;;;;;;;;;5046813;28;20252;-65
2022/07/18 08:46:36;;;;;;;3.17;1.90;;;;;;;;;;5057773;28;20237;-63
2022/07/18 08:49:14;;;;;;;2.23;1.80;;;;;;;;;;5048751;28;20518;-64
2022/07/18 08:51:46;;;;;;;2.37;1.67;;;;;;;;;;5014728;28;20296;-61
2022/07/18 08:54:17;;;;;;;2.60;1.90;;;;;;;;;;5047575;28;20199;-65
2022/07/18 08:56:55;;;;;;;5.23;2.20;;;;;;;;;;5051788;28;20247;-63
2022/07/18 08:59:25;;;;;;;2.07;1.87;;;;;;;;;;5053171;28;20202;-63
2022/07/18 09:01:57;;;;;;;3.80;1.90;;;;;;;;;;5045414;28;20210;-64
2022/07/18 09:04:38;;;;;;;4.40;1.77;;;;;;;;;;5045247;28;20225;-63
2022/07/18 09:07:09;;;;;;;1.93;1.67;;;;;;;;;;5050645;28;20198;-67
2022/07/18 09:09:54;;;;;;;2.87;1.50;;;;;;;;;;5045087;28;20549;-67
2022/07/18 09:12:31;;;;;;;3.13;1.83;;;;;;;;;;5045999;28;20201;-63
2022/07/18 09:15:10;;;;;;;2.80;1.80;;;;;;;;;;5043954;28;20218;-67
2022/07/18 09:17:45;;;;;;;2.37;1.83;;;;;;;;;;5049114;28;20224;-67
2022/07/18 09:20:15;;;;;;;1.87;1.70;;;;;;;;;;5032789;28;20213;-66
2022/07/18 09:22:48;;;;;;;5.40;1.80;;;;;;;;;;5052099;28;20187;-67
2022/07/18 09:25:26;;;;;;;2.60;1.90;;;;;;;;;;5051475;28;20612;-65
2022/07/18 09:27:58;;;;;;;2.63;1.80;;;;;;;;;;5029493;28;20283;-64
2022/07/18 09:30:35;;;;;;;3.03;1.80;;;;;;;;;;5041443;28;20616;-66
2022/07/18 09:33:04;;;;;;;2.20;1.80;;;;;;;;;;5049505;28;20208;-66
2022/07/18 09:35:55;;;;;;;2.80;1.90;;;;;;;;;;5047262;28;20248;-64
2022/07/18 09:38:34;;;;;;;1.67;1.57;;;;;;;;;;5050423;28;20194;-65
2022/07/18 09:41:17;;;;;;;2.37;1.80;;;;;;;;;;5045988;28;20734;-66
2022/07/18 09:43:48;;;;;;;2.47;2.00;;;;;;;;;;5046992;28;20202;-66
2022/07/18 09:46:15;;;;;;;6.57;1.80;;;;;;;;;;5046732;28;20186;-65
2022/07/18 09:48:50;;;;;;;2.10;1.90;;;;;;;;;;5047784;28;20183;-66
2022/07/18 09:51:31;;;;;;;2.07;1.67;;;;;;;;;;5046844;28;20713;-65
2022/07/18 09:54:03;;;;;;;2.00;1.80;;;;;;;;;;5030799;28;20718;-65
2022/07/18 09:56:35;;;;;;;2.83;1.90;;;;;;;;;;5046166;28;20217;-65
2022/07/18 09:59:08;;;;;;;3.97;2.20;;;;;;;;;;5047176;28;20228;-65
2022/07/18 10:01:41;;;;;;;2.50;1.97;;;;;;;;;;5044330;28;20218;-62
2022/07/18 10:04:10;;;;;;;2.33;2.07;;;;;;;;;;5050125;28;20202;-63
2022/07/18 10:06:44;;;;;;;2.47;1.80;;;;;;;;;;5046033;28;20202;-64
2022/07/18 10:09:16;;;;;;;3.63;1.83;;;;;;;;;;5029370;28;20203;-63
2022/07/18 10:11:46;;;;;;;4.10;2.00;;;;;;;;;;5043509;28;20202;-62
2022/07/18 10:14:16;;;;;;;3.37;1.60;;;;;;;;;;5048522;28;20191;-62
2022/07/18 10:16:44;;;;;;;2.80;1.87;;;;;;;;;;5029440;28;20219;-66
2022/07/18 10:19:17;;;;;;;3.70;1.80;;;;;;;;;;5042623;28;20233;-66
2022/07/18 10:21:49;;;;;;;3.70;1.60;;;;;;;;;;5044110;28;20260;-63
2022/07/18 10:24:20;;;;;;;4.70;1.63;;;;;;;;;;5045619;28;20199;-63
2022/07/18 10:27:08;;;;;;;1.93;1.63;;;;;;;;;;5045810;28;20202;-62
2022/07/18 10:29:39;;;;;;;2.93;1.83;;;;;;;;;;5036013;28;20607;-62
2022/07/18 10:32:08;;;;;;;2.03;1.60;;;;;;;;;;5063681;28;20216;-64
2022/07/18 10:34:43;;;;;;;1.53;1.43;;;;;;;;;;5042722;28;20619;-65
2022/07/18 10:37:12;;;;;;;2.47;1.80;;;;;;;;;;5041522;28;20779;-65
2022/07/18 10:39:47;;;;;;;2.30;1.60;;;;;;;;;;5046227;28;20197;-65
2022/07/18 10:42:24;;;;;;;2.10;1.90;;;;;;;;;;5019285;28;20209;-63
2022/07/18 10:44:54;;;;;;;2.57;1.60;;;;;;;;;;5053640;28;20743;-63
2022/07/18 10:47:29;;;;;;;3.37;1.90;;;;;;;;;;5051145;28;20194;-65
2022/07/18 10:50:04;;;;;;;2.70;1.77;;;;;;;;;;5044114;28;20312;-65
2022/07/18 10:52:38;;;;;;;3.57;2.10;;;;;;;;;;5035217;28;20206;-63
2022/07/18 10:55:23;;;;;;;3.23;1.50;;;;;;;;;;5034015;28;20191;-63
2022/07/18 10:57:54;;;;;;;2.80;2.10;;;;;;;;;;5028518;28;20202;-63
2022/07/18 11:00:35;;;;;;;3.53;1.40;;;;;;;;;;5031492;28;20576;-63
2022/07/18 11:03:14;;;;;;;3.10;1.70;;;;;;;;;;5030359;28;20266;-63
2022/07/18 11:05:48;;;;;;;2.43;1.50;;;;;;;;;;5022731;28;20624;-63
2022/07/18 11:08:24;;;;;;;1.83;1.50;;;;;;;;;;5030154;28;20190;-63
2022/07/18 11:11:01;;;;;;;2.07;1.70;;;;;;;;;;5030429;28;20194;-65
2022/07/18 11:13:39;;;;;;;2.27;1.70;;;;;;;;;;5017090;28;20199;-64
2022/07/18 11:16:16;;;;;;;2.07;1.70;;;;;;;;;;5025256;28;20221;-64
2022/07/18 11:18:51;;;;;;;2.20;1.83;;;;;;;;;;5029554;28;20193;-65
2022/07/18 11:21:34;;;;;;;1.60;1.50;;;;;;;;;;5043079;28;20234;-62
2022/07/18 11:24:13;;;;;;;2.03;1.63;;;;;;;;;;5028831;28;20289;-62
2022/07/18 11:26:50;;;;;;;2.47;1.47;;;;;;;;;;5028410;28;20274;-62
2022/07/18 11:29:22;;;;;;;4.37;1.70;;;;;;;;;;5025201;28;20207;-62
2022/07/18 11:31:57;;;;;;;2.77;1.43;;;;;;;;;;5031092;28;20213;-62
2022/07/18 11:34:27;;;;;;;1.83;1.67;;;;;;;;;;5039491;28;20191;-62
2022/07/18 11:37:13;;;;;;;1.80;1.70;;;;;;;;;;5030948;28;20195;-65
2022/07/18 11:39:43;;;;;;;1.63;1.50;;;;;;;;;;5015811;28;20199;-64
2022/07/18 11:42:16;;;;;;;1.73;1.50;;;;;;;;;;5029747;28;20221;-62
2022/07/18 11:45:11;;;;;;;3.07;1.90;;;;;;;;;;5023398;28;20191;-64
2022/07/18 11:47:51;;;;;;;1.50;1.40;;;;;;;;;;5032234;28;20195;-65
2022/07/18 11:50:40;;;;;;;2.50;1.63;;;;;;;;;;5036393;28;20222;-62
2022/07/18 11:53:13;;;;;;;5.97;1.67;;;;;;;;;;5033220;28;20215;-63
2022/07/18 11:55:49;;;;;;;2.27;1.50;;;;;;;;;;5015157;28;20504;-65
2022/07/18 11:58:21;;;;;;;1.67;1.50;;;;;;;;;;5048190;28;20186;-65
2022/07/18 12:01:05;;;;;;;3.00;1.83;;;;;;;;;;5055944;28;20294;-65
2022/07/18 12:03:40;;;;;;;1.83;1.50;;;;;;;;;;5042028;28;20194;-65
2022/07/18 12:06:22;;;;;;;1.53;1.30;;;;;;;;;;5028069;28;20191;-64
2022/07/18 12:09:03;;;;;;;1.47;1.30;;;;;;;;;;5050327;28;20190;-64
2022/07/18 12:11:37;;;;;;;2.30;1.53;;;;;;;;;;5032688;28;20182;-64
2022/07/18 12:14:23;;;;;;;2.10;1.80;;;;;;;;;;5031257;28;20304;-64
2022/07/18 12:16:59;;;;;;;2.30;1.50;;;;;;;;;;5023899;28;20210;-64
2022/07/18 12:19:44;;;;;;;2.50;1.83;;;;;;;;;;5039650;28;20625;-64
2022/07/18 12:22:28;;;;;;;3.87;1.67;;;;;;;;;;5047127;28;20299;-64
2022/07/18 12:25:00;;;;;;;2.40;1.80;;;;;;;;;;5048626;28;20222;-65
2022/07/18 12:27:34;;;;;;;2.00;1.50;;;;;;;;;;5052967;28;20217;-62
2022/07/18 12:30:22;;;;;;;2.17;1.70;;;;;;;;;;5045980;28;20199;-61
2022/07/18 12:32:59;;;;;;;4.77;1.77;;;;;;;;;;5049833;28;20281;-63
2022/07/18 12:35:35;;;;;;;2.03;1.50;;;;;;;;;;5049611;28;20205;-61
2022/07/18 12:38:16;;;;;;;4.17;1.67;;;;;;;;;;5049950;28;20222;-61
2022/07/18 12:41:01;;;;;;;1.70;1.60;;;;;;;;;;5034887;28;20644;-61
2022/07/18 12:43:39;;;;;;;2.17;1.60;;;;;;;;;;5047815;28;20194;-61
2022/07/18 12:46:12;;;;;;;1.93;1.50;;;;;;;;;;5043542;28;20198;-60
2022/07/18 12:48:42;;;;;;;2.97;1.50;;;;;;;;;;5029476;28;20214;-60
2022/07/18 12:51:12;;;;;;;1.33;1.23;;;;;;;;;;5049135;28;20233;-63
2022/07/18 12:53:49;;;;;;;2.37;1.60;;;;;;;;;;5038409;28;20647;-63
2022/07/18 12:56:22;;;;;;;1.40;1.30;;;;;;;;;;5046304;28;20198;-63
2022/07/18 12:58:56;;;;;;;2.83;1.53;;;;;;;;;;5051414;28;20209;-63
2022/07/18 13:01:32;;;;;;;2.80;1.50;;;;;;;;;;5059381;28;20224;-63
2022/07/18 13:04:05;;;;;;;2.83;1.47;;;;;;;;;;5043197;28;20750;-63
2022/07/18 13:06:38;;;;;;;1.83;1.60;;;;;;;;;;5053947;28;20198;-61
2022/07/18 13:09:13;;;;;;;1.47;1.37;;;;;;;;;;5053999;28;20186;-61
2022/07/18 13:11:46;;;;;;;1.53;1.43;;;;;;;;;;5045331;28;20205;-61
2022/07/18 13:14:19;;;;;;;1.50;1.40;;;;;;;;;;5050569;28;20651;-61
2022/07/18 13:16:52;;;;;;;1.57;1.47;;;;;;;;;;5025263;28;20202;-61
2022/07/18 13:19:26;;;;;;;1.40;1.30;;;;;;;;;;5062369;28;20240;-62
2022/07/18 13:21:57;;;;;;;1.70;1.50;;;;;;;;;;5055478;28;20213;-62
2022/07/18 13:24:27;;;;;;;2.17;1.70;;;;;;;;;;5033217;28;20201;-62
2022/07/18 13:27:07;;;;;;;2.10;1.90;;;;;;;;;;5054097;28;20228;-62
2022/07/18 13:29:38;;;;;;;1.50;1.40;;;;;;;;;;5027925;28;20559;-61
2022/07/18 13:32:11;;;;;;;1.70;1.50;;;;;;;;;;5034573;28;20198;-63
2022/07/18 13:34:57;;;;;;;1.77;1.67;;;;;;;;;;5052107;28;20291;-63
2022/07/18 13:37:28;;;;;;;1.80;1.53;;;;;;;;;;5048753;28;20199;-63
2022/07/18 13:39:59;;;;;;;1.40;1.30;;;;;;;;;;5023550;28;20202;-63
2022/07/18 13:42:33;;;;;;;1.93;1.80;;;;;;;;;;5060544;28;20412;-61
2022/07/18 13:45:14;;;;;;;1.73;1.63;;;;;;;;;;5031236;28;20281;-60
2022/07/18 13:47:44;;;;;;;1.63;1.47;;;;;;;;;;5041739;28;20273;-61
2022/07/18 13:50:15;;;;;;;1.70;1.37;;;;;;;;;;5046920;28;20821;-63
2022/07/18 13:52:46;;;;;;;1.60;1.50;;;;;;;;;;5043113;28;20198;-63
2022/07/18 13:55:18;;;;;;;1.40;1.30;;;;;;;;;;5045555;28;20198;-63
2022/07/18 13:57:51;;;;;;;1.90;1.57;;;;;;;;;;5047713;28;20187;-63
2022/07/18 14:00:26;;;;;;;1.57;1.47;;;;;;;;;;5036731;28;20193;-60
2022/07/18 14:02:54;;;;;;;1.40;1.30;;;;;;;;;;5051468;28;20216;-61
2022/07/18 14:05:26;;;;;;;1.50;1.40;;;;;;;;;;5042087;28;20213;-61
2022/07/18 14:07:58;;;;;;;1.50;1.40;;;;;;;;;;5045196;28;20252;-62
2022/07/18 14:10:29;;;;;;;1.73;1.53;;;;;;;;;;5047020;28;20201;-62
2022/07/18 14:12:59;;;;;;;4.30;1.90;;;;;;;;;;5046962;28;20551;-67
2022/07/18 14:15:33;;;;;;;80.67;14.63;;;;;;;;;;5029991;28;20213;-64
2022/07/18 14:18:05;;;;;;;71.30;16.17;;;;;;;;;;5012794;28;20592;-65
2022/07/18 14:20:36;;;;;;;80.50;16.40;;;;;;;;;;5043974;28;20552;-62
2022/07/18 14:23:04;;;;;;;68.90;17.90;;;;;;;;;;5043148;28;20218;-62
2022/07/18 14:25:36;;;;;;;59.13;15.93;;;;;;;;;;5045207;28;20697;-62
2022/07/18 14:28:06;;;;;;;52.83;14.47;;;;;;;;;;5038287;28;20237;-62
2022/07/18 14:30:40;;;;;;;38.77;13.07;;;;;;;;;;5023703;28;20194;-64
2022/07/18 14:33:18;;;;;;;41.90;12.77;;;;;;;;;;5042782;28;22919;-64
2022/07/18 14:35:49;;;;;;;41.90;11.83;;;;;;;;;;5038712;28;20206;-63
2022/07/18 14:38:20;;;;;;;32.80;11.07;;;;;;;;;;5043047;28;20209;-63
2022/07/18 14:40:53;;;;;;;41.67;11.43;;;;;;;;;;5018241;28;20210;-61
2022/07/18 14:43:24;;;;;;;27.97;9.93;;;;;;;;;;5036425;28;20254;-62
2022/07/18 14:46:00;;;;;;;25.43;9.80;;;;;;;;;;5038610;28;20215;-64
2022/07/18 14:48:33;;;;;;;28.57;8.53;;;;;;;;;;5042692;28;20682;-64
2022/07/18 14:51:05;;;;;;;21.90;8.47;;;;;;;;;;5048228;28;20723;-64
2022/07/18 14:53:35;;;;;;;17.27;7.07;;;;;;;;;;5039047;28;20222;-64
2022/07/18 14:56:06;;;;;;;20.13;7.53;;;;;;;;;;5039053;28;20219;-64
2022/07/18 14:58:44;;;;;;;16.00;6.90;;;;;;;;;;5034621;28;20194;-64
2022/07/18 15:01:25;;;;;;;16.43;6.60;;;;;;;;;;5026571;28;20187;-62
2022/07/18 15:03:53;;;;;;;14.73;6.57;;;;;;;;;;5030563;28;20234;-62
2022/07/18 15:06:36;;;;;;;14.07;6.20;;;;;;;;;;5034533;28;20669;-64
2022/07/18 15:09:16;;;;;;;12.07;5.27;;;;;;;;;;5035762;28;20247;-65
2022/07/18 15:11:45;;;;;;;12.13;5.07;;;;;;;;;;5035764;28;20320;-61
2022/07/18 15:14:13;;;;;;;15.37;4.90;;;;;;;;;;5041086;28;20648;-61
2022/07/18 15:16:43;;;;;;;8.90;4.30;;;;;;;;;;5033116;28;20261;-61
2022/07/18 15:19:16;;;;;;;9.17;3.87;;;;;;;;;;5040737;28;20198;-61